Time;durP1;ratioP1;P1;durP2;ratioP2;P2;SDS_P1;SDS_P2;PMS_P1;PMS_P2;Temp;Humidity;BMP_temperature;BMP_pressure;BME280_temperature;BME280_humidity;BME280_pressure;Samples;Min_cycle;Max_cycle;Signal;HPM_P1;HPM_P2
2022/07/14 00:02:11;;;;;;;9.40;2.42;;;;;;;15.11;nan;102059.47;5033929;28;20534;-60
2022/07/14 00:04:36;;;;;;;7.53;2.63;;;;;;;14.98;nan;102047.47;5050737;28;20033;-61
2022/07/14 00:07:02;;;;;;;8.30;2.20;;;;;;;15.04;nan;102057.03;5023034;28;20580;-61
2022/07/14 00:09:27;;;;;;;7.03;1.90;;;;;;;15.04;nan;102063.22;5031969;28;20037;-62
2022/07/14 00:11:53;;;;;;;8.10;1.98;;;;;;;14.69;nan;102010.41;5031997;28;20033;-61
2022/07/14 00:14:18;;;;;;;10.43;1.98;;;;;;;15.03;nan;102076.53;5031813;28;20207;-61
2022/07/14 00:16:43;;;;;;;6.97;2.15;;;;;;;15.03;nan;102069.41;5030867;28;20044;-61
2022/07/14 00:19:09;;;;;;;8.30;1.92;;;;;;;15.00;nan;102081.94;5031921;28;20033;-62
2022/07/14 00:21:34;;;;;;;6.32;1.90;;;;;;;14.60;nan;102006.25;5031569;28;20183;-62
2022/07/14 00:23:59;;;;;;;6.03;1.83;;;;;;;14.94;nan;102067.06;5014297;28;20577;-63
2022/07/14 00:26:25;;;;;;;8.45;1.98;;;;;;;14.89;nan;102068.09;5030579;28;20140;-63
2022/07/14 00:28:50;;;;;;;9.57;2.10;;;;;;;14.80;nan;102063.94;5035021;28;20121;-62
2022/07/14 00:31:16;;;;;;;8.27;2.40;;;;;;;14.52;nan;102010.94;5035735;28;20142;-62
2022/07/14 00:33:41;;;;;;;8.18;2.03;;;;;;;14.39;nan;101998.94;5035760;28;20034;-60
2022/07/14 00:36:09;;;;;;;7.22;2.25;;;;;;;14.52;nan;102031.25;5024187;28;20522;-62
2022/07/14 00:38:34;;;;;;;5.78;2.10;;;;;;;14.61;nan;102058.34;5054802;28;20451;-62
2022/07/14 00:41:00;;;;;;;7.93;2.40;;;;;;;14.61;nan;102071.59;5043027;28;20033;-60
2022/07/14 00:43:25;;;;;;;4.40;2.00;;;;;;;14.58;nan;102062.88;5034720;28;20048;-61
2022/07/14 00:45:51;;;;;;;6.85;1.83;;;;;;;14.53;nan;102064.81;5035418;28;20060;-61
2022/07/14 00:48:19;;;;;;;8.98;2.65;;;;;;;14.49;nan;102071.97;5035279;28;20109;-62
2022/07/14 00:50:45;;;;;;;8.23;2.58;;;;;;;14.35;nan;102038.84;5034018;28;20029;-61
2022/07/14 00:53:11;;;;;;;10.55;2.42;;;;;;;14.45;nan;102062.34;5033634;28;20037;-62
2022/07/14 00:55:39;;;;;;;15.68;2.58;;;;;;;14.09;nan;102002.47;5034917;28;20428;-60
2022/07/14 00:58:04;;;;;;;4.45;2.08;;;;;;;14.18;nan;102027.81;5034872;28;20516;-62
2022/07/14 01:00:30;;;;;;;9.27;2.60;;;;;;;14.40;nan;102064.28;5033109;28;20108;-62
2022/07/14 01:02:56;;;;;;;6.25;2.58;;;;;;;14.28;nan;102045.16;5034865;28;20396;-62
2022/07/14 01:05:22;;;;;;;10.50;2.03;;;;;;;14.36;nan;102070.56;5034815;28;20037;-61
2022/07/14 01:07:47;;;;;;;6.47;2.22;;;;;;;14.00;nan;102010.69;5034805;28;20469;-62
2022/07/14 01:10:13;;;;;;;9.27;2.20;;;;;;;13.98;nan;102012.50;5034659;28;20116;-61
2022/07/14 01:12:48;;;;;;;6.78;2.15;;;;;;;13.27;nan;101921.84;5034488;28;20041;-62
2022/07/14 01:15:15;;;;;;;9.95;2.20;;;;;;;14.21;nan;102062.16;5033405;28;20037;-63
2022/07/14 01:17:40;;;;;;;8.45;2.10;;;;;;;14.16;nan;102058.75;5033452;28;20037;-61
2022/07/14 01:20:07;;;;;;;11.40;2.80;;;;;;;14.22;nan;102059.47;5033115;28;20040;-63
2022/07/14 01:22:32;;;;;;;11.20;2.55;;;;;;;13.93;nan;102019.69;5034145;28;20057;-61
2022/07/14 01:24:57;;;;;;;11.32;2.47;;;;;;;14.09;nan;102053.66;5046421;28;20195;-62
2022/07/14 01:27:23;;;;;;;6.45;2.30;;;;;;;14.07;nan;102039.56;5054674;28;20396;-62
2022/07/14 01:29:48;;;;;;;10.63;2.50;;;;;;;14.10;nan;102063.31;5041394;28;20036;-61
2022/07/14 01:32:13;;;;;;;8.07;2.20;;;;;;;13.75;nan;102013.09;5034451;28;20431;-63
2022/07/14 01:34:39;;;;;;;8.63;2.80;;;;;;;13.72;nan;102010.53;5034469;28;20469;-60
2022/07/14 01:37:04;;;;;;;9.02;2.22;;;;;;;13.77;nan;102024.53;5033895;28;20153;-61
2022/07/14 01:39:29;;;;;;;9.45;2.92;;;;;;;13.73;nan;102022.88;5033047;28;20038;-60
2022/07/14 01:41:55;;;;;;;6.97;2.70;;;;;;;13.88;nan;102043.66;5032939;28;20473;-61
2022/07/14 01:44:21;;;;;;;6.22;2.25;;;;;;;13.96;nan;102065.47;5016614;28;20025;-61
2022/07/14 01:46:46;;;;;;;7.72;2.10;;;;;;;13.85;nan;102053.44;5034149;28;20037;-60
2022/07/14 01:49:12;;;;;;;8.40;2.78;;;;;;;13.74;nan;102031.69;5034253;28;20033;-60
2022/07/14 01:51:37;;;;;;;8.20;2.50;;;;;;;13.50;nan;102010.25;5033832;28;20443;-61
2022/07/14 01:54:04;;;;;;;9.32;2.30;;;;;;;13.59;nan;102030.31;5016308;28;20034;-61
2022/07/14 01:56:29;;;;;;;8.25;2.60;;;;;;;13.63;nan;102044.34;5032507;28;20300;-61
2022/07/14 01:58:55;;;;;;;6.85;2.45;;;;;;;13.44;nan;102009.53;5033761;28;20528;-61
2022/07/14 02:04:04;;;;;;;4.65;2.20;;;;;;;;;;5033865;28;20546;-63
2022/07/14 02:06:29;;;;;;;7.43;2.70;;;;;;;13.53;nan;102046.34;5033591;28;20033;-62
2022/07/14 02:08:58;;;;;;;10.45;2.42;;;;;;;13.49;nan;102028.78;5032149;28;20032;-61
2022/07/14 02:14:08;;;;;;;5.57;2.35;;;;;;;13.40;nan;102010.50;5042633;28;20047;-61
2022/07/14 02:16:33;;;;;;;6.72;2.53;;;;;;;13.45;nan;102029.81;5053428;28;20037;-62
2022/07/14 02:18:59;;;;;;;6.50;2.35;;;;;;;13.41;nan;102031.66;5053462;28;20037;-61
2022/07/14 02:21:25;;;;;;;7.20;2.25;;;;;;;13.32;nan;102017.78;5053063;28;20033;-61
2022/07/14 02:23:51;;;;;;;8.60;2.55;;;;;;;13.32;nan;102031.88;5052215;28;20099;-61
2022/07/14 02:26:17;;;;;;;7.47;2.50;;;;;;;13.18;nan;102017.25;5053382;28;20037;-62
2022/07/14 02:28:42;;;;;;;6.75;1.98;;;;;;;13.23;nan;102025.94;5050730;28;20064;-62
2022/07/14 02:31:11;;;;;;;4.85;2.10;;;;;;;13.22;nan;102034.78;5033179;28;20424;-62
2022/07/14 02:33:37;;;;;;;8.48;2.22;;;;;;;13.20;nan;102023.38;5033038;28;20040;-61
2022/07/14 02:36:04;;;;;;;7.28;2.13;;;;;;;13.15;nan;102018.22;5032793;28;20045;-61
2022/07/14 02:38:29;;;;;;;8.93;2.85;;;;;;;12.73;nan;101959.28;5031861;28;20039;-61
2022/07/14 02:40:55;;;;;;;7.18;2.50;;;;;;;13.12;nan;102025.34;5031857;28;20037;-62
2022/07/14 02:43:21;;;;;;;5.03;2.40;;;;;;;13.10;nan;102025.38;5033150;28;20108;-61
2022/07/14 02:45:46;;;;;;;6.95;2.53;;;;;;;13.09;nan;102034.22;5032285;28;20098;-61
2022/07/14 02:48:12;;;;;;;7.95;2.80;;;;;;;12.72;nan;101975.19;5032757;28;20428;-61
2022/07/14 02:50:37;;;;;;;7.47;2.17;;;;;;;12.78;nan;101983.81;5032672;28;20041;-61
2022/07/14 02:53:03;;;;;;;11.80;2.40;;;;;;;12.94;nan;102011.63;5031620;28;20365;-61
2022/07/14 02:55:29;;;;;;;6.18;2.80;;;;;;;12.87;nan;102003.88;5032999;28;20041;-62
2022/07/14 02:57:55;;;;;;;6.85;2.70;;;;;;;12.95;nan;102034.50;5032797;28;20064;-61
2022/07/14 03:00:20;;;;;;;7.22;2.47;;;;;;;12.93;nan;102020.44;5033075;28;20107;-61
2022/07/14 03:02:45;;;;;;;5.20;2.28;;;;;;;12.90;nan;102025.78;5033429;28;20512;-63
2022/07/14 03:05:11;;;;;;;5.03;2.72;;;;;;;12.80;nan;102012.84;5052167;28;20036;-62
2022/07/14 03:07:36;;;;;;;7.38;2.72;;;;;;;12.49;nan;101967.78;5052387;28;20077;-62
2022/07/14 03:10:02;;;;;;;9.15;2.88;;;;;;;12.87;nan;102025.03;5052563;28;20044;-62
2022/07/14 03:12:27;;;;;;;5.70;2.13;;;;;;;12.79;nan;102006.69;5052564;28;20037;-63
2022/07/14 03:14:52;;;;;;;10.73;2.92;;;;;;;12.81;nan;102010.16;5052071;28;20116;-62
2022/07/14 03:17:18;;;;;;;7.30;2.72;;;;;;;12.92;nan;102028.41;5052407;28;20037;-62
2022/07/14 03:19:44;;;;;;;7.40;3.13;;;;;;;12.33;nan;101925.00;5052172;28;20032;-62
2022/07/14 03:22:09;;;;;;;6.30;2.88;;;;;;;12.52;nan;101959.75;5052281;28;20044;-63
2022/07/14 03:24:34;;;;;;;4.22;2.15;;;;;;;12.88;nan;102019.69;5051004;28;20048;-62
2022/07/14 03:27:00;;;;;;;7.93;2.80;;;;;;;12.85;nan;102017.13;5050844;28;20037;-62
2022/07/14 03:29:26;;;;;;;9.73;3.03;;;;;;;12.86;nan;102029.44;5042455;28;20045;-61
2022/07/14 03:31:52;;;;;;;9.63;3.75;;;;;;;12.82;nan;102011.91;5030859;28;20044;-61
2022/07/14 03:34:18;;;;;;;8.07;2.60;;;;;;;12.70;nan;101985.75;5031983;28;20045;-62
2022/07/14 03:36:43;;;;;;;7.88;3.70;;;;;;;12.84;nan;102015.38;5032133;28;20061;-62
2022/07/14 03:39:08;;;;;;;8.82;2.60;;;;;;;12.82;nan;102005.75;5032160;28;20041;-62
2022/07/14 03:41:34;;;;;;;8.30;3.20;;;;;;;12.47;nan;101945.78;5032066;28;20132;-62
2022/07/14 03:43:59;;;;;;;5.68;2.70;;;;;;;12.81;nan;101996.09;5030449;28;20077;-62
2022/07/14 03:46:24;;;;;;;10.32;3.00;;;;;;;12.59;nan;101955.22;5031499;28;20041;-60
2022/07/14 03:48:51;;;;;;;7.72;2.40;;;;;;;12.89;nan;102002.06;5031762;28;20469;-61
2022/07/14 03:51:16;;;;;;;6.00;2.50;;;;;;;12.48;nan;101918.50;5032053;28;20450;-62
2022/07/14 03:53:42;;;;;;;9.27;3.25;;;;;;;12.92;nan;102000.22;5039939;28;20068;-62
2022/07/14 03:56:07;;;;;;;8.23;2.70;;;;;;;12.98;nan;101997.44;5051843;28;20413;-63
2022/07/14 03:58:33;;;;;;;9.63;2.53;;;;;;;12.65;nan;101936.59;5051679;28;20044;-61
2022/07/14 04:00:58;;;;;;;9.45;3.10;;;;;;;12.66;nan;101940.97;5033801;28;20049;-61
2022/07/14 04:03:23;;;;;;;8.90;3.05;;;;;;;13.06;nan;102009.59;5053179;28;20040;-62
2022/07/14 04:05:49;;;;;;;9.70;2.70;;;;;;;13.07;nan;102013.97;5055772;28;20041;-62
2022/07/14 04:08:14;;;;;;;5.93;2.70;;;;;;;13.03;nan;102002.59;5054530;28;20068;-62
2022/07/14 04:10:40;;;;;;;8.32;2.92;;;;;;;13.08;nan;102013.97;5055593;28;20036;-62
2022/07/14 04:13:05;;;;;;;7.40;2.92;;;;;;;13.08;nan;101997.22;5055681;28;20040;-61
2022/07/14 04:15:31;;;;;;;7.72;3.22;;;;;;;13.11;nan;102007.72;5054373;28;20037;-61
2022/07/14 04:17:57;;;;;;;7.10;3.13;;;;;;;13.11;nan;102008.59;5054410;28;20047;-61
2022/07/14 04:20:23;;;;;;;7.68;3.60;;;;;;;12.73;nan;101943.41;5055425;28;20041;-63
2022/07/14 04:22:49;;;;;;;7.78;3.20;;;;;;;13.08;nan;102005.16;5055533;28;20087;-62
2022/07/14 04:25:15;;;;;;;6.88;3.50;;;;;;;12.73;nan;101938.13;5055606;28;20099;-62
2022/07/14 04:27:41;;;;;;;7.72;4.05;;;;;;;13.08;nan;101994.59;5054248;28;20029;-62
2022/07/14 04:30:08;;;;;;;7.15;3.85;;;;;;;12.83;nan;101952.00;5041290;28;20163;-62
2022/07/14 04:32:33;;;;;;;10.77;3.80;;;;;;;13.14;nan;101987.38;5035256;28;20034;-61
2022/07/14 04:34:59;;;;;;;8.88;3.50;;;;;;;13.18;nan;101988.19;5035621;28;20064;-62
2022/07/14 04:37:28;;;;;;;8.60;3.83;;;;;;;12.90;nan;101932.47;5017615;28;20073;-62
2022/07/14 04:39:54;;;;;;;5.25;3.25;;;;;;;13.23;nan;101976.56;5034106;28;20029;-62
2022/07/14 04:42:21;;;;;;;12.65;3.45;;;;;;;12.98;nan;101931.38;5034177;28;20033;-62
2022/07/14 04:44:47;;;;;;;7.45;3.13;;;;;;;13.33;nan;101977.22;5052220;28;20037;-61
2022/07/14 04:47:12;;;;;;;10.82;2.88;;;;;;;13.18;nan;101948.53;5054456;28;20067;-61
2022/07/14 04:52:21;;;;;;;9.32;2.78;;;;;;;13.23;nan;101943.97;5055213;28;20239;-63
2022/07/14 04:54:46;;;;;;;5.30;2.22;;;;;;;13.57;nan;101999.53;5053842;28;20033;-62
2022/07/14 04:57:12;;;;;;;6.78;2.88;;;;;;;13.60;nan;101992.34;5055097;28;20118;-63
2022/07/14 04:59:37;;;;;;;7.50;2.30;;;;;;;13.64;nan;101996.66;5054533;28;20051;-62
2022/07/14 05:02:03;;;;;;;5.60;2.70;;;;;;;13.70;nan;101985.03;5054780;28;20064;-62
2022/07/14 05:04:29;;;;;;;5.80;2.50;;;;;;;13.77;nan;102000.72;5054568;28;20087;-62
2022/07/14 05:06:55;;;;;;;8.27;2.65;;;;;;;13.81;nan;101994.41;5054795;28;20037;-61
2022/07/14 05:09:21;;;;;;;4.20;2.00;;;;;;;13.82;nan;102000.59;5054816;28;20029;-62
2022/07/14 05:11:46;;;;;;;6.45;2.67;;;;;;;13.61;nan;101954.41;5054567;28;20128;-63
2022/07/14 05:14:12;;;;;;;4.07;2.28;;;;;;;13.89;nan;102002.16;5053175;28;20059;-62
2022/07/14 05:16:38;;;;;;;6.63;2.65;;;;;;;13.68;nan;101950.69;5054672;28;20563;-61
2022/07/14 05:19:04;;;;;;;7.95;2.55;;;;;;;14.06;nan;102026.38;5054753;28;20087;-62
2022/07/14 05:21:30;;;;;;;6.03;2.50;;;;;;;13.99;nan;102001.84;5054221;28;20120;-62
2022/07/14 05:23:56;;;;;;;9.10;3.03;;;;;;;14.05;nan;102004.34;5054562;28;20060;-62
2022/07/14 05:26:21;;;;;;;9.20;2.42;;;;;;;14.24;nan;102014.41;5054432;28;20429;-63
2022/07/14 05:28:46;;;;;;;5.95;2.40;;;;;;;14.35;nan;102028.25;5051150;28;20033;-63
2022/07/14 05:31:12;;;;;;;5.90;2.30;;;;;;;14.16;nan;101955.47;5034581;28;20492;-62
2022/07/14 05:33:37;;;;;;;8.75;2.17;;;;;;;14.42;nan;101953.81;5037644;28;20029;-61
2022/07/14 05:36:03;;;;;;;12.90;2.50;;;;;;;15.05;nan;102032.25;5053837;28;20065;-63
2022/07/14 05:38:31;;;;;;;6.90;2.20;;;;;;;15.40;nan;102047.03;5052668;28;20500;-62
2022/07/14 05:40:57;;;;;;;6.28;2.42;;;;;;;15.42;nan;102008.91;5052887;28;20041;-62
2022/07/14 05:43:22;;;;;;;5.55;2.35;;;;;;;15.63;nan;102050.69;5052713;28;20040;-63
2022/07/14 05:45:48;;;;;;;4.45;1.88;;;;;;;15.56;nan;102056.22;5054176;28;20037;-63
2022/07/14 05:48:13;;;;;;;5.95;1.60;;;;;;;15.47;nan;102062.72;5052897;28;20028;-62
2022/07/14 05:50:38;;;;;;;9.68;2.30;;;;;;;15.14;nan;102026.66;5053884;28;20476;-63
2022/07/14 05:53:04;;;;;;;7.55;2.03;;;;;;;15.22;nan;102051.16;5053502;28;20033;-62
2022/07/14 05:55:29;;;;;;;4.72;2.38;;;;;;;15.20;nan;102031.78;5053875;28;20060;-62
2022/07/14 05:57:54;;;;;;;7.72;2.45;;;;;;;15.28;nan;102050.06;5036300;28;20045;-63
2022/07/14 06:00:20;;;;;;;6.53;2.15;;;;;;;15.37;nan;102039.16;5053803;28;20039;-62
2022/07/14 06:02:45;;;;;;;8.48;2.60;;;;;;;15.44;nan;102041.56;5053901;28;20468;-63
2022/07/14 06:05:11;;;;;;;6.18;2.35;;;;;;;15.59;nan;102034.88;5053658;28;20091;-63
2022/07/14 06:07:36;;;;;;;6.80;2.20;;;;;;;15.34;nan;101960.53;5035807;28;20395;-62
2022/07/14 06:10:03;;;;;;;7.25;2.42;;;;;;;15.85;nan;102036.66;5052725;28;20515;-63
2022/07/14 06:12:28;;;;;;;8.02;2.28;;;;;;;15.98;nan;102038.81;5035641;28;20426;-63
2022/07/14 06:14:54;;;;;;;5.78;2.60;;;;;;;15.95;nan;102044.25;5052435;28;20025;-63
2022/07/14 06:17:19;;;;;;;6.75;2.25;;;;;;;16.09;nan;102038.44;5053918;28;20040;-63
2022/07/14 06:19:44;;;;;;;6.97;2.75;;;;;;;15.82;nan;101983.69;5052285;28;20033;-62
2022/07/14 06:22:10;;;;;;;7.55;2.08;;;;;;;16.29;nan;102046.53;5053470;28;20086;-61
2022/07/14 06:24:39;;;;;;;7.07;2.08;;;;;;;16.12;nan;101990.50;5052976;28;20143;-62
2022/07/14 06:27:05;;;;;;;8.05;2.17;;;;;;;16.56;nan;102052.66;5053153;28;20029;-61
2022/07/14 06:29:30;;;;;;;6.40;1.90;;;;;;;16.28;nan;101987.25;5044320;28;20040;-63
2022/07/14 06:31:55;;;;;;;6.80;1.73;;;;;;;16.71;nan;102036.97;5032074;28;20041;-61
2022/07/14 06:34:24;;;;;;;4.85;1.60;;;;;;;16.44;nan;101989.28;5033276;28;20033;-62
2022/07/14 06:36:49;;;;;;;6.43;1.40;;;;;;;16.88;nan;102042.50;5031723;28;20045;-63
2022/07/14 06:39:15;;;;;;;6.32;1.90;;;;;;;16.98;nan;102032.38;5031962;28;20045;-64
2022/07/14 06:41:41;;;;;;;4.90;2.05;;;;;;;17.11;nan;102036.25;5032944;28;20034;-62
2022/07/14 06:44:07;;;;;;;4.85;1.60;;;;;;;17.26;nan;102024.13;5033171;28;20030;-64
2022/07/14 06:46:32;;;;;;;5.85;1.50;;;;;;;17.28;nan;102017.81;5031892;28;20030;-64
2022/07/14 06:48:58;;;;;;;7.63;2.13;;;;;;;17.36;nan;101998.88;5033183;28;20079;-63
2022/07/14 06:51:25;;;;;;;9.95;2.08;;;;;;;17.21;nan;101963.13;5032896;28;20068;-63
2022/07/14 06:53:51;;;;;;;4.18;1.08;;;;;;;17.55;nan;102007.81;5032861;28;20041;-64
2022/07/14 06:56:16;;;;;;;4.57;1.13;;;;;;;17.74;nan;102027.44;5032892;28;20037;-63
2022/07/14 06:58:41;;;;;;;3.92;1.30;;;;;;;17.88;nan;102025.03;5031807;28;20064;-63
2022/07/14 07:01:06;;;;;;;2.58;1.20;;;;;;;17.83;nan;101991.53;5035467;28;20064;-62
2022/07/14 07:03:32;;;;;;;5.55;1.50;;;;;;;17.83;nan;101963.06;5051252;28;20123;-61
2022/07/14 07:08:41;;;;;;;6.78;1.70;;;;;;;18.18;nan;101961.50;5031660;28;20055;-61
2022/07/14 07:11:08;;;;;;;5.28;1.90;;;;;;;18.42;nan;101988.78;5032642;28;20464;-62
2022/07/14 07:13:33;;;;;;;6.63;1.33;;;;;;;18.77;nan;102024.50;5038113;28;20041;-62
2022/07/14 07:16:06;;;;;;;4.68;1.27;;;;;;;18.91;nan;102012.22;5048707;28;20156;-61
2022/07/14 07:18:32;;;;;;;4.50;1.42;;;;;;;19.12;nan;102045.00;5031270;28;20033;-63
2022/07/14 07:20:57;;;;;;;4.47;1.52;;;;;;;18.69;nan;101946.66;5032125;28;20067;-63
2022/07/14 07:23:23;;;;;;;4.95;1.65;;;;;;;19.09;nan;101973.97;5032123;28;20076;-62
2022/07/14 07:25:48;;;;;;;5.53;1.50;;;;;;;19.58;nan;102033.78;5032568;28;20442;-63
2022/07/14 07:28:13;;;;;;;3.25;0.95;;;;;;;19.65;nan;102035.22;5031264;28;20033;-63
2022/07/14 07:30:39;;;;;;;7.00;1.92;;;;;;;19.82;nan;102036.19;5032215;28;20029;-64
2022/07/14 07:33:04;;;;;;;4.35;1.40;;;;;;;20.07;nan;102039.28;5031146;28;20032;-64
2022/07/14 07:35:30;;;;;;;3.75;1.40;;;;;;;19.78;nan;101976.69;5039203;28;20036;-65
2022/07/14 07:37:55;;;;;;;4.97;1.58;;;;;;;19.98;nan;102023.72;5049066;28;20159;-63
2022/07/14 07:40:20;;;;;;;5.47;1.42;;;;;;;20.27;nan;102048.94;5052013;28;20040;-64
2022/07/14 07:42:46;;;;;;;6.22;1.80;;;;;;;20.46;nan;102055.88;5052236;28;20041;-63
2022/07/14 07:45:11;;;;;;;6.53;1.38;;;;;;;20.25;nan;102008.03;5052293;28;20075;-63
2022/07/14 07:47:37;;;;;;;5.97;1.50;;;;;;;20.71;nan;102069.66;5045475;28;20111;-62
2022/07/14 07:50:04;;;;;;;4.03;1.30;;;;;;;20.94;nan;102080.88;5031808;28;20448;-64
2022/07/14 07:52:29;;;;;;;3.65;1.23;;;;;;;21.31;nan;102076.06;5031759;28;20112;-64
2022/07/14 07:54:54;;;;;;;8.15;1.30;;;;;;;21.77;nan;102086.78;5032675;28;20460;-64
2022/07/14 07:57:20;;;;;;;4.68;1.10;;;;;;;22.01;nan;102060.38;5032377;28;20463;-64
2022/07/14 07:59:49;;;;;;;4.22;1.15;;;;;;;21.97;nan;102070.41;5031744;28;20041;-64
2022/07/14 08:02:15;;;;;;;4.85;1.20;;;;;;;22.01;nan;102042.44;5031579;28;20452;-65
2022/07/14 08:04:40;;;;;;;5.72;1.42;;;;;;;22.00;nan;102040.72;5051726;28;20063;-64
2022/07/14 08:07:05;;;;;;;3.08;1.20;;;;;;;21.98;nan;102039.09;5051780;28;20029;-65
2022/07/14 08:09:31;;;;;;;4.82;1.10;;;;;;;22.10;nan;102067.81;5051829;28;20503;-65
2022/07/14 08:11:56;;;;;;;6.25;1.88;;;;;;;22.79;nan;102074.22;5033298;28;20056;-64
2022/07/14 08:17:05;;;;;;;4.50;0.80;;;;;;;23.14;nan;102041.50;5033052;28;20523;-65
2022/07/14 08:19:32;;;;;;;3.10;0.90;;;;;;;23.88;nan;102074.97;5013923;28;20029;-65
2022/07/14 08:21:58;;;;;;;6.10;1.10;;;;;;;23.61;nan;102033.88;5031667;28;20037;-64
2022/07/14 08:24:24;;;;;;;4.10;0.98;;;;;;;24.50;nan;102078.69;5030800;28;20041;-63
2022/07/14 08:26:51;;;;;;;6.03;1.25;;;;;;;24.57;nan;102026.16;5031795;28;20400;-65
2022/07/14 08:29:16;;;;;;;4.60;1.40;;;;;;;24.95;nan;102061.09;5031825;28;20130;-65
2022/07/14 08:31:41;;;;;;;4.50;1.10;;;;;;;25.16;nan;102050.53;5031712;28;20456;-65
2022/07/14 08:34:07;;;;;;;3.42;1.20;;;;;;;24.96;nan;102021.53;5031596;28;20041;-64
2022/07/14 08:36:34;;;;;;;3.65;1.20;;;;;;;25.23;nan;102075.19;5032980;28;20085;-64
2022/07/14 08:39:01;;;;;;;6.63;1.48;;;;;;;25.27;nan;102072.19;5031818;28;20073;-64
2022/07/14 08:41:27;;;;;;;2.88;0.95;;;;;;;25.52;nan;102079.31;5031757;28;20041;-64
2022/07/14 08:43:53;;;;;;;2.88;1.42;;;;;;;25.44;nan;102087.09;5030475;28;20044;-64
2022/07/14 08:46:19;;;;;;;4.63;1.13;;;;;;;24.69;nan;101999.31;5031612;28;20034;-64
2022/07/14 08:48:46;;;;;;;5.60;1.52;;;;;;;25.09;nan;102082.50;5032959;28;20033;-64
2022/07/14 08:51:12;;;;;;;4.32;1.42;;;;;;;25.50;nan;102086.66;5033583;28;20037;-63
2022/07/14 08:53:37;;;;;;;4.30;0.98;;;;;;;25.30;nan;102076.47;5049651;28;20518;-64
2022/07/14 08:56:03;;;;;;;6.13;1.58;;;;;;;25.08;nan;102077.19;5055132;28;20045;-65
2022/07/14 08:58:28;;;;;;;5.10;1.60;;;;;;;24.77;nan;102081.25;5055155;28;20129;-63
2022/07/14 09:00:54;;;;;;;4.60;1.50;;;;;;;24.95;nan;102026.06;5033539;28;20743;-65
2022/07/14 09:03:19;;;;;;;3.10;1.60;;;;;;;25.47;nan;102070.69;5033766;28;20068;-64
2022/07/14 09:05:45;;;;;;;5.22;1.95;;;;;;;26.03;nan;102066.38;5034757;28;20044;-65
2022/07/14 09:08:12;;;;;;;5.57;1.67;;;;;;;26.43;nan;102073.06;5033875;28;20128;-64
2022/07/14 09:10:39;;;;;;;5.60;1.73;;;;;;;26.54;nan;102083.00;5033444;28;20473;-64
2022/07/14 09:13:14;;;;;;;4.00;1.40;;;;;;;25.66;nan;102069.19;5033477;28;20033;-63
2022/07/14 09:15:46;;;;;;;5.32;1.63;;;;;;;25.69;nan;102082.44;5034619;28;20374;-63
2022/07/14 09:18:25;;;;;;;5.50;1.90;;;;;;;25.72;nan;102078.66;5034763;28;20507;-64
2022/07/14 09:20:52;;;;;;;6.97;1.75;;;;;;;25.08;nan;102044.88;5033124;28;20037;-65
2022/07/14 09:23:33;;;;;;;3.63;1.63;;;;;;;25.47;nan;102086.84;5033156;28;20029;-63
2022/07/14 09:26:19;;;;;;;4.80;1.50;;;;;;;25.07;nan;102032.38;5034846;28;20029;-62
2022/07/14 09:28:47;;;;;;;5.70;1.58;;;;;;;24.98;nan;102020.47;5040345;28;20040;-63
2022/07/14 09:31:27;;;;;;;6.28;1.48;;;;;;;25.81;nan;102088.72;5034515;28;20041;-63
2022/07/14 09:33:58;;;;;;;5.07;1.23;;;;;;;25.04;nan;102040.69;5033196;28;20389;-64
2022/07/14 09:36:26;;;;;;;6.47;1.55;;;;;;;25.62;nan;102045.28;5034281;28;20060;-64
2022/07/14 09:38:52;;;;;;;3.58;1.42;;;;;;;25.76;nan;102028.91;5034173;28;20094;-63
2022/07/14 09:41:18;;;;;;;3.20;1.30;;;;;;;26.13;nan;102067.34;5034105;28;20098;-63
2022/07/14 09:44:10;;;;;;;3.58;1.15;;;;;;;26.97;nan;102078.59;5041698;28;20477;-63
2022/07/14 09:46:46;;;;;;;4.68;1.20;;;;;;;27.39;nan;102077.75;5048241;28;20094;-63
2022/07/14 09:49:12;;;;;;;6.13;1.73;;;;;;;27.64;nan;102076.56;5052673;28;20526;-63
2022/07/14 09:52:00;;;;;;;3.45;1.40;;;;;;;27.50;nan;102070.59;5053969;28;20040;-62
2022/07/14 09:54:46;;;;;;;3.50;1.45;;;;;;;27.54;nan;102070.22;5040267;28;20033;-63
2022/07/14 09:57:11;;;;;;;5.38;1.60;;;;;;;27.58;nan;102066.28;5033739;28;20487;-64
2022/07/14 09:59:48;;;;;;;7.37;1.60;;;;;;;27.98;nan;102071.00;5032972;28;20026;-62
2022/07/14 10:02:21;;;;;;;3.85;1.33;;;;;;;28.34;nan;102070.53;5032454;28;20318;-63
2022/07/14 10:04:51;;;;;;;3.95;1.15;;;;;;;28.14;nan;102083.09;5033728;28;20033;-64
2022/07/14 10:07:18;;;;;;;3.00;1.05;;;;;;;26.86;nan;102077.75;5051034;28;20029;-63
2022/07/14 10:09:50;;;;;;;4.40;1.17;;;;;;;26.91;nan;102081.81;5050703;28;20021;-64
2022/07/14 10:12:16;;;;;;;4.78;1.38;;;;;;;27.02;nan;102079.09;5052342;28;20032;-63
2022/07/14 10:14:42;;;;;;;4.25;1.17;;;;;;;27.56;nan;102034.94;5053276;28;20068;-63
2022/07/14 10:17:07;;;;;;;8.65;1.50;;;;;;;27.99;nan;102086.25;5052884;28;20061;-62
2022/07/14 10:19:34;;;;;;;4.47;1.50;;;;;;;28.48;nan;102076.47;5053501;28;20116;-63
2022/07/14 10:21:59;;;;;;;5.38;1.70;;;;;;;27.54;nan;102082.88;5053315;28;20029;-63
2022/07/14 10:24:25;;;;;;;5.80;1.25;;;;;;;26.77;nan;102082.00;5053283;28;20365;-62
2022/07/14 10:26:52;;;;;;;4.20;1.00;;;;;;;26.32;nan;102018.22;5051737;28;20352;-63
2022/07/14 10:29:17;;;;;;;4.53;0.93;;;;;;;26.78;nan;102075.66;5044880;28;20076;-64
2022/07/14 10:32:13;;;;;;;6.32;1.10;;;;;;;26.96;nan;102074.19;5032936;28;20057;-64
2022/07/14 10:35:03;;;;;;;4.53;1.27;;;;;;;26.96;nan;102070.63;5033071;28;20407;-62
2022/07/14 10:37:50;;;;;;;3.78;1.17;;;;;;;26.60;nan;102069.03;5033045;28;20055;-62
2022/07/14 10:40:24;;;;;;;5.65;1.55;;;;;;;26.44;nan;102041.53;5031981;28;20025;-63
2022/07/14 10:42:57;;;;;;;5.47;1.60;;;;;;;26.46;nan;102088.16;5031850;28;20124;-62
2022/07/14 10:45:24;;;;;;;3.10;0.90;;;;;;;25.90;nan;102033.22;5031867;28;20029;-61
2022/07/14 10:47:51;;;;;;;6.22;1.10;;;;;;;26.02;nan;102060.09;5032909;28;20063;-61
2022/07/14 10:50:24;;;;;;;6.07;1.17;;;;;;;26.07;nan;102070.53;5032969;28;20034;-61
2022/07/14 10:52:55;;;;;;;4.25;1.00;;;;;;;26.27;nan;102075.25;5032853;28;20048;-61
2022/07/14 10:55:23;;;;;;;5.25;1.10;;;;;;;26.55;nan;102082.91;5032908;28;20044;-61
2022/07/14 10:58:04;;;;;;;5.55;1.23;;;;;;;26.29;nan;102078.72;5032788;28;20396;-63
2022/07/14 11:00:44;;;;;;;3.30;0.80;;;;;;;26.87;nan;102079.47;5032117;28;20354;-62
2022/07/14 11:03:24;;;;;;;2.92;0.88;;;;;;;27.43;nan;102074.81;5032914;28;20087;-62
2022/07/14 11:06:08;;;;;;;6.05;1.10;;;;;;;27.60;nan;102018.31;5031328;28;20048;-62
2022/07/14 11:08:38;;;;;;;2.85;0.90;;;;;;;27.39;nan;102039.91;5032631;28;20057;-62
2022/07/14 11:11:08;;;;;;;5.63;3.17;;;;;;;26.82;nan;102078.00;5032842;28;20083;-62
2022/07/14 11:13:57;;;;;;;2.38;0.82;;;;;;;27.28;nan;102068.81;5031589;28;20034;-62
2022/07/14 11:16:45;;;;;;;3.35;1.02;;;;;;;28.34;nan;102076.78;5032358;28;20394;-61
2022/07/14 11:19:35;;;;;;;2.22;1.00;;;;;;;28.25;nan;102049.69;5036385;28;20029;-61
2022/07/14 11:22:20;;;;;;;3.38;0.90;;;;;;;28.76;nan;102074.00;5052026;28;20505;-61
2022/07/14 11:24:51;;;;;;;2.55;1.00;;;;;;;28.97;nan;102086.50;5052307;28;20388;-60
2022/07/14 11:27:47;;;;;;;3.13;0.70;;;;;;;29.16;nan;102093.81;5052486;28;20029;-61
2022/07/14 11:30:29;;;;;;;3.35;0.70;;;;;;;28.51;nan;102091.59;5037594;28;20026;-61
2022/07/14 11:32:58;;;;;;;2.00;0.68;;;;;;;28.56;nan;102100.16;5030971;28;20380;-61
2022/07/14 11:38:33;;;;;;;1.73;0.70;;;;;;;28.49;nan;102097.13;5032356;28;20096;-63
2022/07/14 11:40:58;;;;;;;3.03;0.80;;;;;;;28.32;nan;102072.50;5032144;28;20064;-62
2022/07/14 11:43:30;;;;;;;2.75;0.80;;;;;;;28.48;nan;102106.25;5031932;28;20504;-61
2022/07/14 11:46:03;;;;;;;4.22;1.20;;;;;;;28.77;nan;102108.25;5031886;28;20116;-62
2022/07/14 11:48:37;;;;;;;3.40;1.00;;;;;;;28.98;nan;102114.47;5031970;28;20087;-60
2022/07/14 11:51:09;;;;;;;2.50;0.70;;;;;;;28.38;nan;102074.69;5031968;28;20057;-61
2022/07/14 11:53:35;;;;;;;2.60;0.90;;;;;;;28.28;nan;102107.09;5031619;28;20482;-61
2022/07/14 11:56:02;;;;;;;3.40;1.10;;;;;;;27.70;nan;102061.69;5030777;28;20076;-62
2022/07/14 11:58:28;;;;;;;3.00;0.88;;;;;;;27.16;nan;102110.38;5030558;28;20041;-62
2022/07/14 12:00:55;;;;;;;3.00;0.90;;;;;;;27.73;nan;102104.72;5031466;28;20080;-61